createdAt,value
2022-08-07T00:22:24.289Z,17.64
2022-08-07T00:50:46.439Z,16.83
2022-08-07T01:18:59.290Z,16.44
2022-08-07T01:48:18.725Z,15.93
2022-08-07T02:16:12.113Z,15.57
2022-08-07T02:44:36.711Z,15.31
2022-08-07T03:13:00.307Z,14.81
2022-08-07T03:41:41.907Z,14.59
2022-08-07T04:10:03.230Z,14.27
2022-08-07T04:38:27.029Z,14.28
2022-08-07T05:07:21.159Z,14.68
2022-08-07T05:35:42.709Z,15.23
2022-08-07T06:04:30.501Z,15.85
2022-08-07T06:32:47.336Z,16.78
2022-08-07T07:01:50.801Z,32.88
2022-08-07T07:30:38.237Z,26
2022-08-07T07:58:54.573Z,22.97
2022-08-07T08:27:12.290Z,23.54
2022-08-07T08:55:54.073Z,24.82
2022-08-07T09:24:34.461Z,25.47
2022-08-07T09:52:54.011Z,25.77
2022-08-07T10:21:51.067Z,26.66
2022-08-07T10:49:52.095Z,26.55
2022-08-07T11:18:18.040Z,26.95
2022-08-07T11:46:49.540Z,27.64
2022-08-07T12:15:36.112Z,27.94
2022-08-07T12:44:05.424Z,28.24
2022-08-07T13:12:23.964Z,28.74
2022-08-07T13:41:08.989Z,28.62
2022-08-07T14:10:03.268Z,28.8
2022-08-07T14:38:31.076Z,28.98
2022-08-07T15:06:48.188Z,29.29
2022-08-07T15:34:58.662Z,29.16
2022-08-07T16:03:55.791Z,28.9
2022-08-07T16:32:25.515Z,28.98
2022-08-07T17:00:31.487Z,28.41
2022-08-07T17:29:08.295Z,28.02
2022-08-07T17:57:56.839Z,27.2
2022-08-07T18:26:01.705Z,26.24
2022-08-07T18:54:34.724Z,25.46
2022-08-07T19:23:29.928Z,24.61
2022-08-07T19:52:00.205Z,23.85
2022-08-07T20:20:09.714Z,23.03
2022-08-07T20:49:54.739Z,22.32
2022-08-07T21:18:01.412Z,21.67
2022-08-07T21:46:04.999Z,20.85
2022-08-07T22:14:35.072Z,20.71
2022-08-07T22:42:47.042Z,20.13
2022-08-07T23:11:45.663Z,19.46
2022-08-07T23:39:58.635Z,18.8
